Time;durP1;ratioP1;P1;durP2;ratioP2;P2;SDS_P1;SDS_P2;PMS_P1;PMS_P2;Temp;Humidity;BMP_temperature;BMP_pressure;BME280_temperature;BME280_humidity;BME280_pressure;Samples;Min_cycle;Max_cycle;Signal;HPM_P1;HPM_P2
2022/03/15 00:00:56;;;;;;;6.30;3.53;;;5.40;99.90;;;;;;5106843;22;20290;-92
2022/03/15 00:03:23;;;;;;;6.20;3.78;;;5.50;99.90;;;;;;5060288;22;20237;-78
2022/03/15 00:05:50;;;;;;;4.47;3.55;;;5.50;99.90;;;;;;5033367;28;20218;-78
2022/03/15 00:08:17;;;;;;;4.07;3.50;;;5.50;99.90;;;;;;5032771;28;20306;-78
2022/03/15 00:10:44;;;;;;;5.10;4.18;;;5.50;99.90;;;;;;5033657;28;20271;-78
2022/03/15 00:13:11;;;;;;;6.15;3.70;;;5.50;99.90;;;;;;5032060;28;20225;-78
2022/03/15 00:15:42;;;;;;;5.90;4.47;;;5.50;99.90;;;;;;5032307;28;20222;-79
2022/03/15 00:18:09;;;;;;;4.15;3.65;;;5.50;99.90;;;;;;5031958;28;20198;-77
2022/03/15 00:20:36;;;;;;;8.32;3.72;;;5.50;99.90;;;;;;5033217;28;20201;-78
2022/03/15 00:23:03;;;;;;;4.85;3.83;;;5.50;99.90;;;;;;5035914;28;20193;-77
2022/03/15 00:25:31;;;;;;;4.03;3.20;;;5.50;99.90;;;;;;5033172;28;20233;-78
2022/03/15 00:27:58;;;;;;;7.25;3.40;;;5.60;99.90;;;;;;5031889;28;20197;-79
2022/03/15 00:30:25;;;;;;;4.53;3.50;;;5.50;99.90;;;;;;5031986;28;20263;-78
2022/03/15 00:32:54;;;;;;;5.43;3.78;;;5.50;99.90;;;;;;5032117;28;20337;-78
2022/03/15 00:35:23;;;;;;;5.00;3.70;;;5.50;99.90;;;;;;5039634;28;20228;-78
2022/03/15 00:37:51;;;;;;;5.07;3.72;;;5.50;99.90;;;;;;5048450;28;20638;-79
2022/03/15 00:40:19;;;;;;;4.57;3.58;;;5.40;99.90;;;;;;5045887;28;20208;-77
2022/03/15 00:42:49;;;;;;;5.53;4.30;;;5.30;99.90;;;;;;5049467;28;20202;-78
2022/03/15 00:45:16;;;;;;;6.15;3.70;;;5.20;99.90;;;;;;5052497;28;20222;-78
2022/03/15 00:47:43;;;;;;;7.15;4.28;;;5.20;99.90;;;;;;5049485;28;20213;-78
2022/03/15 00:50:12;;;;;;;6.45;3.88;;;5.30;99.90;;;;;;5038330;28;20214;-78
2022/03/15 00:52:39;;;;;;;7.55;3.60;;;5.30;99.90;;;;;;5039027;28;20233;-78
2022/03/15 00:55:06;;;;;;;3.88;3.00;;;5.30;99.90;;;;;;5032435;28;20218;-78
2022/03/15 00:57:33;;;;;;;6.30;3.65;;;5.30;99.90;;;;;;5031823;28;20224;-79
2022/03/15 01:00:00;;;;;;;5.03;3.15;;;5.20;99.90;;;;;;5031940;28;20582;-78
2022/03/15 01:02:27;;;;;;;3.67;3.20;;;5.20;99.90;;;;;;5035616;28;20210;-78
2022/03/15 01:04:54;;;;;;;3.85;3.15;;;5.20;99.90;;;;;;5034764;28;20225;-77
2022/03/15 01:07:22;;;;;;;4.68;3.00;;;5.20;99.90;;;;;;5034417;28;20209;-78
2022/03/15 01:09:49;;;;;;;5.65;3.30;;;5.20;99.90;;;;;;5035325;28;20205;-77
2022/03/15 01:12:16;;;;;;;4.15;3.28;;;5.30;99.90;;;;;;5035124;28;20205;-79
2022/03/15 01:14:43;;;;;;;5.35;3.40;;;5.30;99.90;;;;;;5036569;28;20233;-78
2022/03/15 01:17:10;;;;;;;3.72;3.00;;;5.30;99.90;;;;;;5035112;28;20229;-79
2022/03/15 01:19:37;;;;;;;7.45;3.63;;;5.30;99.90;;;;;;5035327;28;20210;-79
2022/03/15 01:22:04;;;;;;;6.05;3.42;;;5.20;99.90;;;;;;5035218;28;20209;-79
2022/03/15 01:24:32;;;;;;;7.50;3.75;;;5.20;99.90;;;;;;5035537;28;20222;-79
2022/03/15 01:26:59;;;;;;;6.60;3.35;;;5.20;99.90;;;;;;5035051;28;20232;-79
2022/03/15 01:29:26;;;;;;;5.00;3.20;;;5.20;99.90;;;;;;5035769;28;20209;-78
2022/03/15 01:31:53;;;;;;;6.00;3.25;;;5.20;99.90;;;;;;5034432;28;20214;-77
2022/03/15 01:34:20;;;;;;;4.68;3.10;;;5.10;99.90;;;;;;5034872;28;20316;-78
2022/03/15 01:36:47;;;;;;;4.07;3.42;;;5.10;99.90;;;;;;5034458;28;20209;-77
2022/03/15 01:39:14;;;;;;;4.30;3.13;;;5.10;99.90;;;;;;5034602;28;20206;-78
2022/03/15 01:41:44;;;;;;;4.50;2.95;;;5.20;99.90;;;;;;5035054;28;20202;-78
2022/03/15 01:44:15;;;;;;;4.20;3.55;;;5.20;99.90;;;;;;5035370;28;20225;-78
2022/03/15 01:46:42;;;;;;;6.47;3.95;;;5.30;99.90;;;;;;5034471;28;20202;-78
2022/03/15 01:49:09;;;;;;;6.40;3.65;;;5.30;99.90;;;;;;5034806;28;20206;-78
2022/03/15 01:51:40;;;;;;;10.80;3.50;;;5.30;99.90;;;;;;5035099;28;20286;-78
2022/03/15 01:54:08;;;;;;;3.65;2.90;;;5.30;99.90;;;;;;5035266;28;20221;-78
2022/03/15 01:56:36;;;;;;;4.40;3.65;;;5.20;99.90;;;;;;5034698;28;20292;-78
2022/03/15 01:59:04;;;;;;;4.90;3.70;;;5.20;99.90;;;;;;5035165;28;20206;-79
2022/03/15 02:01:31;;;;;;;15.15;3.67;;;5.10;99.90;;;;;;5034829;28;20209;-78
2022/03/15 02:03:58;;;;;;;3.75;3.03;;;5.10;99.90;;;;;;5035423;28;20205;-78
2022/03/15 02:06:24;;;;;;;6.68;4.32;;;5.10;99.90;;;;;;5034724;28;20212;-78
2022/03/15 02:08:51;;;;;;;5.30;3.20;;;5.10;99.90;;;;;;5034077;28;20213;-78
2022/03/15 02:11:18;;;;;;;4.70;4.20;;;5.10;99.90;;;;;;5034259;28;20221;-78
2022/03/15 02:13:46;;;;;;;6.15;2.90;;;5.20;99.90;;;;;;5034579;28;20229;-78
2022/03/15 02:16:16;;;;;;;4.25;3.05;;;5.10;99.90;;;;;;5034537;28;20210;-78
2022/03/15 02:18:43;;;;;;;3.80;2.75;;;5.20;99.90;;;;;;5034032;28;20681;-78
2022/03/15 02:21:11;;;;;;;5.85;2.90;;;5.20;99.90;;;;;;5035112;28;20856;-78
2022/03/15 02:23:38;;;;;;;4.25;3.53;;;5.10;99.90;;;;;;5034752;28;20205;-78
2022/03/15 02:26:04;;;;;;;4.30;3.53;;;5.10;99.90;;;;;;5034075;28;20718;-78
2022/03/15 02:28:31;;;;;;;4.32;3.03;;;5.10;99.90;;;;;;5033864;28;20209;-78
2022/03/15 02:30:58;;;;;;;4.47;3.08;;;5.10;99.90;;;;;;5034050;28;20292;-77
2022/03/15 02:33:25;;;;;;;3.35;3.05;;;5.10;99.90;;;;;;5034244;28;20229;-78
2022/03/15 02:35:52;;;;;;;8.63;3.40;;;5.10;99.90;;;;;;5034180;28;20225;-78
2022/03/15 02:38:21;;;;;;;5.47;2.90;;;5.10;99.90;;;;;;5034145;28;20206;-78
2022/03/15 02:40:48;;;;;;;3.55;3.10;;;5.20;99.90;;;;;;5036517;28;20626;-78
2022/03/15 02:43:15;;;;;;;4.78;3.45;;;5.20;99.90;;;;;;5039916;28;20205;-78
2022/03/15 02:45:42;;;;;;;4.18;3.60;;;5.20;99.90;;;;;;5041251;28;20217;-78
2022/03/15 02:48:08;;;;;;;7.55;3.17;;;5.20;99.90;;;;;;5038865;28;20201;-79
2022/03/15 02:50:35;;;;;;;5.38;2.95;;;5.20;99.90;;;;;;5032451;28;20212;-78
2022/03/15 02:53:02;;;;;;;5.65;2.92;;;5.20;99.90;;;;;;5034220;28;20221;-78
2022/03/15 02:55:32;;;;;;;4.82;3.55;;;5.20;99.90;;;;;;5034142;28;20661;-78
2022/03/15 02:58:00;;;;;;;3.35;2.90;;;5.10;99.90;;;;;;5034195;28;20214;-78
2022/03/15 03:00:28;;;;;;;4.25;3.40;;;5.10;99.90;;;;;;5034539;28;20202;-78
2022/03/15 03:02:55;;;;;;;3.75;3.30;;;5.10;99.90;;;;;;5034811;28;20209;-78
2022/03/15 03:05:21;;;;;;;4.68;3.45;;;5.20;99.90;;;;;;5034680;28;20225;-78
2022/03/15 03:07:49;;;;;;;3.85;3.30;;;5.20;99.90;;;;;;5034315;28;20574;-78
2022/03/15 03:10:17;;;;;;;4.63;3.53;;;5.20;99.90;;;;;;5034843;28;20202;-78
2022/03/15 03:12:45;;;;;;;3.40;3.08;;;5.20;99.90;;;;;;5034837;28;20233;-78
2022/03/15 03:15:13;;;;;;;4.53;3.42;;;5.20;99.90;;;;;;5034416;28;20225;-78
2022/03/15 03:17:41;;;;;;;7.05;3.00;;;5.20;99.90;;;;;;5034031;28;20213;-78
2022/03/15 03:20:09;;;;;;;4.85;3.47;;;5.20;99.90;;;;;;5033894;28;20229;-78
2022/03/15 03:22:37;;;;;;;5.40;3.15;;;5.20;99.90;;;;;;5034239;28;20205;-78
2022/03/15 03:25:04;;;;;;;4.40;3.35;;;5.10;99.90;;;;;;5033459;28;20233;-78
2022/03/15 03:27:31;;;;;;;6.30;3.50;;;5.10;99.90;;;;;;5032657;28;20202;-78
2022/03/15 03:30:00;;;;;;;3.95;3.10;;;5.10;99.90;;;;;;5033664;28;20206;-78
2022/03/15 03:32:28;;;;;;;3.40;2.80;;;5.10;99.90;;;;;;5033199;28;20831;-78
2022/03/15 03:34:55;;;;;;;4.53;3.10;;;5.10;99.90;;;;;;5033890;28;20249;-78
2022/03/15 03:37:22;;;;;;;9.27;3.20;;;5.10;99.90;;;;;;5032751;28;20205;-78
2022/03/15 03:39:49;;;;;;;4.57;3.30;;;5.20;99.90;;;;;;5033657;28;20212;-78
2022/03/15 03:42:16;;;;;;;8.23;4.25;;;5.20;99.90;;;;;;5033673;28;20236;-78
2022/03/15 03:44:43;;;;;;;7.47;4.70;;;5.20;99.90;;;;;;5033605;28;20719;-78
2022/03/15 03:47:11;;;;;;;5.68;3.88;;;5.20;99.90;;;;;;5033401;28;20201;-78
2022/03/15 03:49:39;;;;;;;4.18;3.30;;;5.20;99.90;;;;;;5034048;28;20878;-78
2022/03/15 03:52:07;;;;;;;5.25;3.67;;;5.20;99.90;;;;;;5033418;28;20212;-78
2022/03/15 03:54:34;;;;;;;4.53;3.30;;;5.20;99.90;;;;;;5033116;28;20234;-79
2022/03/15 03:57:01;;;;;;;4.18;3.55;;;5.20;99.90;;;;;;5032985;28;20209;-78
2022/03/15 03:59:28;;;;;;;4.78;3.42;;;5.20;99.90;;;;;;5033572;28;20194;-78
2022/03/15 04:01:55;;;;;;;4.10;3.10;;;5.20;99.90;;;;;;5033404;28;20197;-79
2022/03/15 04:04:23;;;;;;;3.70;2.90;;;5.20;99.90;;;;;;5032969;28;20229;-77
2022/03/15 04:06:50;;;;;;;3.30;2.72;;;5.30;99.90;;;;;;5032887;28;20202;-78
2022/03/15 04:09:16;;;;;;;4.65;3.60;;;5.20;99.90;;;;;;5033399;28;20240;-79
2022/03/15 04:11:43;;;;;;;3.20;2.90;;;5.20;99.90;;;;;;5032949;28;20206;-78
2022/03/15 04:14:11;;;;;;;4.78;3.10;;;5.20;99.90;;;;;;5032993;28;20711;-78
2022/03/15 04:16:38;;;;;;;3.63;2.83;;;5.20;99.90;;;;;;5032844;28;20228;-79
2022/03/15 04:19:05;;;;;;;7.07;3.40;;;5.20;99.90;;;;;;5035644;28;20256;-78
2022/03/15 04:21:33;;;;;;;7.78;3.38;;;5.10;99.90;;;;;;5053068;28;20198;-78
2022/03/15 04:24:01;;;;;;;4.90;3.13;;;5.10;99.90;;;;;;5052378;28;20197;-78
2022/03/15 04:26:28;;;;;;;4.70;2.97;;;5.10;99.90;;;;;;5053989;28;20189;-78
2022/03/15 04:28:55;;;;;;;7.00;3.33;;;5.10;99.90;;;;;;5053859;28;20215;-78
2022/03/15 04:31:23;;;;;;;3.67;2.45;;;5.00;99.90;;;;;;5055187;28;20206;-78
2022/03/15 04:33:49;;;;;;;5.93;3.13;;;5.00;99.90;;;;;;5041236;28;20257;-79
2022/03/15 04:36:17;;;;;;;5.45;3.28;;;5.00;99.90;;;;;;5037724;28;20211;-78
2022/03/15 04:38:45;;;;;;;6.85;3.42;;;5.00;99.90;;;;;;5036338;28;20201;-79
2022/03/15 04:41:13;;;;;;;6.15;3.72;;;5.00;99.90;;;;;;5036709;28;20201;-79
2022/03/15 04:43:40;;;;;;;7.97;3.30;;;5.00;99.90;;;;;;5037128;28;20252;-79
2022/03/15 04:46:07;;;;;;;3.13;2.80;;;5.00;99.90;;;;;;5036520;28;20229;-78
2022/03/15 04:48:34;;;;;;;7.35;3.20;;;5.00;99.90;;;;;;5036349;28;20198;-78
2022/03/15 04:51:00;;;;;;;4.80;3.13;;;5.00;99.90;;;;;;5037983;28;20715;-82
2022/03/15 04:53:27;;;;;;;4.55;3.20;;;5.00;99.90;;;;;;5038149;28;20209;-80
2022/03/15 04:55:55;;;;;;;3.90;3.40;;;4.90;99.90;;;;;;5039309;28;20600;-81
2022/03/15 04:58:23;;;;;;;3.33;2.80;;;5.00;99.90;;;;;;5036626;28;20205;-77
2022/03/15 05:00:50;;;;;;;3.78;2.80;;;4.90;99.90;;;;;;5023443;28;20253;-78
2022/03/15 05:03:17;;;;;;;6.57;3.30;;;4.90;99.90;;;;;;4993944;28;20215;-77
2022/03/15 05:05:44;;;;;;;6.00;2.60;;;4.90;99.90;;;;;;4993370;28;20695;-77
2022/03/15 05:08:11;;;;;;;3.83;3.25;;;4.90;99.90;;;;;;4992410;28;20250;-77
2022/03/15 05:13:26;;;;;;;3.33;3.03;;;4.90;99.90;;;;;;4995188;28;20271;-77
2022/03/15 05:15:53;;;;;;;4.95;3.10;;;4.90;99.90;;;;;;4993980;28;20651;-77
2022/03/15 05:18:20;;;;;;;5.30;3.50;;;5.00;99.90;;;;;;4994785;28;20551;-77
2022/03/15 05:20:47;;;;;;;3.50;3.20;;;5.00;99.90;;;;;;4995182;28;20203;-77
2022/03/15 05:23:14;;;;;;;3.65;2.92;;;5.00;99.90;;;;;;4995592;28;20203;-78
2022/03/15 05:25:40;;;;;;;5.55;3.30;;;5.00;99.90;;;;;;4996624;28;20227;-77
2022/03/15 05:28:08;;;;;;;5.65;3.17;;;5.00;99.90;;;;;;4995305;28;20203;-77
2022/03/15 05:30:37;;;;;;;4.18;2.70;;;5.10;99.90;;;;;;4995514;28;20211;-77
2022/03/15 05:33:03;;;;;;;6.63;3.15;;;5.10;99.90;;;;;;4995715;28;20203;-77
2022/03/15 05:35:30;;;;;;;5.05;3.38;;;5.10;99.90;;;;;;4995585;28;20235;-77
2022/03/15 05:37:57;;;;;;;3.97;3.50;;;5.10;99.90;;;;;;4995304;28;20206;-78
2022/03/15 05:40:25;;;;;;;4.40;3.00;;;5.00;99.90;;;;;;4995608;28;20207;-77
2022/03/15 05:42:51;;;;;;;5.15;3.33;;;5.10;99.90;;;;;;4995270;28;20257;-77
2022/03/15 05:45:18;;;;;;;5.10;2.97;;;5.10;99.90;;;;;;4995058;28;20223;-78
2022/03/15 05:47:46;;;;;;;4.60;2.92;;;5.10;99.90;;;;;;4993776;28;20206;-78
2022/03/15 05:50:13;;;;;;;3.90;3.00;;;5.10;99.90;;;;;;4994259;28;20218;-76
2022/03/15 05:52:40;;;;;;;4.68;3.63;;;5.10;99.90;;;;;;4994425;28;20210;-77
2022/03/15 05:55:07;;;;;;;3.70;3.13;;;5.10;99.90;;;;;;4994063;28;20234;-77
2022/03/15 05:57:34;;;;;;;6.97;4.20;;;5.00;99.90;;;;;;4993613;28;20214;-76
2022/03/15 06:00:01;;;;;;;7.20;3.80;;;5.10;99.90;;;;;;5071580;23;20603;-73
2022/03/15 06:02:29;;;;;;;5.63;3.40;;;5.10;99.90;;;;;;5042681;28;20548;-74
2022/03/15 06:04:57;;;;;;;6.95;4.20;;;5.20;99.90;;;;;;5052411;28;20224;-75
2022/03/15 06:07:24;;;;;;;5.90;3.53;;;5.20;99.90;;;;;;5052705;28;20208;-73
2022/03/15 06:09:52;;;;;;;5.55;2.42;;;5.10;99.90;;;;;;5052937;28;20232;-74
2022/03/15 06:12:19;;;;;;;10.02;3.50;;;5.10;99.90;;;;;;5053255;28;20568;-73
2022/03/15 06:14:46;;;;;;;9.50;3.47;;;5.10;99.90;;;;;;5052681;28;20251;-74
2022/03/15 06:17:13;;;;;;;5.20;2.95;;;5.20;99.90;;;;;;5052455;28;20251;-74
2022/03/15 06:19:39;;;;;;;5.72;2.92;;;5.10;99.90;;;;;;5052999;28;20208;-73
2022/03/15 06:22:07;;;;;;;5.85;3.20;;;5.10;99.90;;;;;;5052793;28;20212;-73
2022/03/15 06:24:34;;;;;;;3.70;2.70;;;5.10;99.90;;;;;;5052751;28;20221;-73
2022/03/15 06:27:01;;;;;;;5.68;3.20;;;5.20;99.90;;;;;;5052076;28;20205;-75
2022/03/15 06:29:28;;;;;;;10.82;2.97;;;5.20;99.90;;;;;;5052949;28;20197;-73
2022/03/15 06:31:55;;;;;;;4.43;3.55;;;5.30;99.90;;;;;;5052578;28;20690;-73
2022/03/15 06:34:23;;;;;;;9.23;4.05;;;5.30;99.90;;;;;;5052708;28;20240;-73
2022/03/15 06:36:50;;;;;;;5.28;3.63;;;5.40;99.90;;;;;;5051594;28;20212;-74
2022/03/15 06:39:18;;;;;;;5.43;3.08;;;5.50;99.90;;;;;;5052542;28;20205;-74
2022/03/15 06:41:45;;;;;;;6.07;3.90;;;5.60;99.90;;;;;;5052532;28;20729;-73
2022/03/15 06:44:12;;;;;;;10.90;3.97;;;5.70;99.90;;;;;;5052070;28;20221;-73
2022/03/15 06:46:38;;;;;;;4.65;3.20;;;5.80;99.90;;;;;;5051830;28;20208;-73
2022/03/15 06:49:05;;;;;;;9.70;4.97;;;5.90;99.90;;;;;;5052249;28;20201;-74
2022/03/15 06:51:32;;;;;;;7.32;3.70;;;6.00;99.90;;;;;;5052348;28;20205;-74
2022/03/15 06:53:59;;;;;;;5.32;3.63;;;6.00;99.90;;;;;;5051616;28;20266;-74
2022/03/15 06:56:27;;;;;;;5.15;3.58;;;6.10;99.90;;;;;;5052069;28;20209;-74
2022/03/15 06:58:54;;;;;;;7.43;3.60;;;6.10;99.90;;;;;;5051265;28;20229;-74
2022/03/15 07:01:21;;;;;;;4.80;3.70;;;6.20;99.90;;;;;;5052396;28;20212;-74
2022/03/15 07:03:49;;;;;;;5.95;3.60;;;6.20;99.90;;;;;;5054101;28;20201;-71
2022/03/15 07:06:16;;;;;;;6.80;4.40;;;6.20;99.90;;;;;;5056013;28;20618;-73
2022/03/15 07:08:43;;;;;;;7.38;3.60;;;6.30;99.90;;;;;;5054953;28;20208;-74
2022/03/15 07:11:10;;;;;;;7.25;3.72;;;6.40;99.90;;;;;;5055221;28;20228;-74
2022/03/15 07:13:38;;;;;;;7.75;3.70;;;6.30;99.90;;;;;;5052053;28;20205;-73
2022/03/15 07:16:05;;;;;;;9.98;4.38;;;6.40;99.90;;;;;;5051382;28;20228;-73
2022/03/15 07:18:32;;;;;;;6.95;3.63;;;6.40;99.90;;;;;;5051321;28;20208;-74
2022/03/15 07:20:59;;;;;;;5.22;3.20;;;6.50;99.90;;;;;;5051273;28;20555;-74
2022/03/15 07:23:26;;;;;;;6.55;3.80;;;6.50;99.90;;;;;;5050986;28;20213;-73
2022/03/15 07:25:52;;;;;;;3.95;3.10;;;6.50;99.90;;;;;;5024613;28;20217;-74
2022/03/15 07:28:19;;;;;;;5.97;3.30;;;6.50;99.90;;;;;;5030292;28;20201;-73
2022/03/15 07:30:47;;;;;;;5.00;3.70;;;6.60;99.90;;;;;;5029686;28;20206;-74
2022/03/15 07:33:14;;;;;;;7.50;4.03;;;6.70;99.90;;;;;;5030358;28;20198;-74
2022/03/15 07:35:41;;;;;;;4.25;3.10;;;6.70;99.90;;;;;;5030427;28;20264;-74
2022/03/15 07:38:08;;;;;;;3.40;3.10;;;6.80;99.90;;;;;;5030089;28;20202;-74
2022/03/15 07:40:35;;;;;;;5.15;3.38;;;6.90;99.90;;;;;;5030029;28;20216;-74
2022/03/15 07:43:02;;;;;;;4.25;3.13;;;7.00;99.90;;;;;;5030059;28;20229;-73
2022/03/15 07:45:29;;;;;;;4.05;3.65;;;7.00;99.90;;;;;;5030547;28;20217;-73
2022/03/15 07:47:57;;;;;;;5.72;3.50;;;7.00;99.90;;;;;;5029404;28;20606;-73
2022/03/15 07:50:25;;;;;;;4.72;3.78;;;7.10;99.90;;;;;;5030330;28;20210;-73
2022/03/15 07:52:53;;;;;;;7.05;3.80;;;7.10;99.90;;;;;;5030065;28;20325;-73
2022/03/15 07:55:21;;;;;;;8.32;3.78;;;7.10;99.90;;;;;;5029549;28;20276;-75
2022/03/15 07:57:48;;;;;;;4.60;3.35;;;7.10;99.90;;;;;;5029645;28;20208;-75
2022/03/15 08:00:15;;;;;;;7.07;3.50;;;7.30;99.90;;;;;;5041725;28;20209;-75
2022/03/15 08:02:43;;;;;;;5.18;3.20;;;7.30;99.90;;;;;;5044931;28;20201;-72
2022/03/15 08:05:11;;;;;;;7.47;3.28;;;7.40;99.90;;;;;;5029200;28;20214;-74
2022/03/15 08:07:39;;;;;;;6.68;3.13;;;7.50;99.90;;;;;;5028845;28;20197;-74
2022/03/15 08:10:07;;;;;;;4.32;3.28;;;7.50;99.90;;;;;;5029086;28;20205;-73
2022/03/15 08:12:34;;;;;;;2.97;2.67;;;7.60;99.90;;;;;;5030084;28;20605;-74
2022/03/15 08:15:01;;;;;;;5.43;3.15;;;7.70;99.90;;;;;;5029709;28;20237;-74
2022/03/15 08:17:28;;;;;;;4.35;2.97;;;7.80;99.90;;;;;;5028740;28;20232;-74
2022/03/15 08:19:57;;;;;;;4.57;3.08;;;7.90;99.70;;;;;;5029020;28;20209;-74
2022/03/15 08:22:25;;;;;;;4.22;3.03;;;8.10;99.20;;;;;;5029558;28;20205;-74
2022/03/15 08:24:52;;;;;;;6.20;3.10;;;8.20;99.20;;;;;;5029195;28;20312;-74
2022/03/15 08:27:18;;;;;;;6.05;3.55;;;8.30;99.00;;;;;;5028970;28;20201;-73
2022/03/15 08:29:45;;;;;;;3.13;2.78;;;8.40;98.50;;;;;;5029431;28;20202;-73
2022/03/15 08:32:12;;;;;;;4.18;3.38;;;8.50;98.40;;;;;;5029237;28;20210;-74
2022/03/15 08:34:39;;;;;;;4.05;2.78;;;8.60;98.30;;;;;;5029748;28;20230;-73
2022/03/15 08:37:06;;;;;;;3.42;3.10;;;8.80;98.60;;;;;;5029258;28;20224;-74
2022/03/15 08:39:34;;;;;;;3.58;3.00;;;8.90;97.90;;;;;;5029743;28;20255;-74
2022/03/15 08:42:02;;;;;;;4.10;2.40;;;9.00;98.00;;;;;;5030136;28;20205;-75
2022/03/15 08:44:29;;;;;;;4.28;2.50;;;9.00;97.70;;;;;;5029475;28;20226;-75
2022/03/15 08:46:56;;;;;;;3.95;2.70;;;8.90;97.90;;;;;;5028557;28;20681;-75
2022/03/15 08:49:23;;;;;;;4.65;2.97;;;8.90;98.10;;;;;;5029437;28;20208;-73
2022/03/15 08:51:50;;;;;;;2.72;2.35;;;8.80;98.30;;;;;;5044831;28;20301;-74
2022/03/15 08:54:17;;;;;;;5.72;2.60;;;8.80;98.70;;;;;;5048032;28;20225;-74
2022/03/15 08:56:45;;;;;;;2.67;2.30;;;8.80;99.00;;;;;;5041097;28;20715;-74
2022/03/15 08:59:13;;;;;;;4.30;2.80;;;8.80;99.40;;;;;;5028772;28;20217;-75
2022/03/15 09:01:40;;;;;;;2.55;2.35;;;8.80;99.90;;;;;;5027672;28;20681;-74
2022/03/15 09:04:06;;;;;;;3.15;2.70;;;8.90;99.90;;;;;;5028934;28;20201;-74
2022/03/15 09:06:33;;;;;;;3.47;2.45;;;8.80;99.90;;;;;;5028764;28;20206;-72
2022/03/15 09:09:00;;;;;;;2.20;2.00;;;8.80;99.90;;;;;;5027667;28;20206;-74
2022/03/15 09:11:28;;;;;;;2.90;2.58;;;8.70;99.90;;;;;;5028502;28;20206;-74
2022/03/15 09:13:58;;;;;;;3.42;2.65;;;8.70;99.90;;;;;;5028800;28;20236;-73
2022/03/15 09:16:25;;;;;;;4.40;2.55;;;8.70;99.90;;;;;;5027844;28;20253;-72
2022/03/15 09:18:52;;;;;;;3.65;2.30;;;8.70;99.90;;;;;;5028207;28;20217;-74
2022/03/15 09:21:19;;;;;;;3.85;2.90;;;8.60;99.90;;;;;;5029963;28;20705;-73
2022/03/15 09:23:45;;;;;;;3.15;2.50;;;8.50;99.90;;;;;;5031414;28;20213;-73
2022/03/15 09:26:13;;;;;;;3.20;2.90;;;8.50;99.90;;;;;;5032272;28;20657;-74
2022/03/15 09:28:41;;;;;;;5.75;3.30;;;8.50;99.90;;;;;;5039851;28;20208;-75
2022/03/15 09:31:09;;;;;;;3.72;2.63;;;8.50;99.90;;;;;;5052798;28;20687;-72
2022/03/15 09:33:35;;;;;;;3.55;2.75;;;8.50;99.90;;;;;;5052616;28;20251;-74
2022/03/15 09:36:04;;;;;;;4.95;3.13;;;8.60;99.90;;;;;;5053162;28;20229;-75
2022/03/15 09:38:32;;;;;;;6.40;3.15;;;8.80;99.90;;;;;;5052580;28;20248;-75
2022/03/15 09:41:03;;;;;;;3.88;2.80;;;9.00;99.90;;;;;;5033432;28;20212;-74
2022/03/15 09:43:35;;;;;;;3.95;2.65;;;9.10;99.90;;;;;;5033058;28;20210;-74
2022/03/15 09:46:04;;;;;;;3.45;2.20;;;9.10;99.90;;;;;;5032047;28;20281;-74
2022/03/15 09:48:32;;;;;;;3.92;2.90;;;9.20;99.90;;;;;;5032465;28;20201;-74
2022/03/15 09:50:59;;;;;;;4.00;2.92;;;9.20;99.90;;;;;;5032593;28;20213;-74
2022/03/15 09:53:26;;;;;;;3.13;2.88;;;9.10;99.90;;;;;;5031188;28;20205;-73
2022/03/15 09:55:52;;;;;;;4.25;2.83;;;9.00;99.90;;;;;;5031139;28;20229;-74
2022/03/15 09:58:21;;;;;;;4.13;3.10;;;8.80;99.90;;;;;;5031111;28;20205;-75
2022/03/15 10:00:52;;;;;;;3.42;2.70;;;8.80;99.90;;;;;;5032486;28;20212;-74
2022/03/15 10:03:19;;;;;;;4.03;2.78;;;8.80;99.90;;;;;;5033009;28;20198;-75
2022/03/15 10:05:49;;;;;;;3.20;2.75;;;8.80;99.90;;;;;;5032530;28;20221;-74
2022/03/15 10:08:17;;;;;;;3.65;3.25;;;8.80;99.90;;;;;;5032195;28;20201;-74
2022/03/15 10:10:44;;;;;;;4.05;3.70;;;8.80;99.90;;;;;;5030971;28;20224;-74
2022/03/15 10:13:10;;;;;;;5.28;2.60;;;8.90;99.90;;;;;;5050522;28;20209;-74
2022/03/15 10:15:37;;;;;;;3.40;2.90;;;8.90;99.90;;;;;;5050637;28;20267;-73
2022/03/15 10:18:05;;;;;;;4.15;3.22;;;9.00;99.90;;;;;;5049459;28;20615;-73
2022/03/15 10:20:40;;;;;;;2.75;2.50;;;9.10;99.90;;;;;;5050572;28;20205;-73
2022/03/15 10:23:10;;;;;;;4.55;3.00;;;9.10;99.90;;;;;;5050165;28;20197;-74
2022/03/15 10:25:38;;;;;;;3.78;3.03;;;9.10;99.90;;;;;;5050150;28;20224;-73
2022/03/15 10:28:07;;;;;;;3.60;2.60;;;9.20;99.90;;;;;;5051564;28;20205;-74
2022/03/15 10:30:35;;;;;;;3.13;2.83;;;9.20;99.90;;;;;;5052459;28;20197;-73
2022/03/15 10:33:03;;;;;;;3.72;2.70;;;9.20;99.90;;;;;;5051819;28;20201;-73
2022/03/15 10:35:32;;;;;;;5.13;3.15;;;9.20;99.90;;;;;;5052134;28;20229;-72
2022/03/15 10:37:59;;;;;;;3.45;3.15;;;9.10;99.90;;;;;;5051626;28;20572;-73
2022/03/15 10:40:35;;;;;;;5.68;3.45;;;9.10;99.90;;;;;;5052209;28;20208;-74
2022/03/15 10:43:07;;;;;;;4.22;2.85;;;9.10;99.90;;;;;;5052305;28;20197;-74
2022/03/15 10:45:36;;;;;;;4.93;3.28;;;9.10;99.90;;;;;;5052095;28;20221;-73
2022/03/15 10:48:12;;;;;;;4.10;3.40;;;9.20;99.90;;;;;;5051457;28;20760;-74
2022/03/15 10:50:50;;;;;;;4.70;3.20;;;9.30;99.90;;;;;;5051851;28;20637;-73
2022/03/15 10:53:18;;;;;;;7.45;3.50;;;9.40;99.90;;;;;;5052457;28;20196;-73
2022/03/15 10:55:46;;;;;;;3.83;3.42;;;9.40;99.90;;;;;;5051415;28;20627;-73
2022/03/15 10:58:15;;;;;;;3.90;2.95;;;9.50;99.90;;;;;;5051255;28;20248;-73
2022/03/15 11:00:43;;;;;;;3.72;2.85;;;9.50;99.90;;;;;;5051419;28;20605;-75
2022/03/15 11:03:14;;;;;;;6.28;3.20;;;9.50;99.90;;;;;;5052006;28;20201;-73
2022/03/15 11:05:43;;;;;;;3.90;3.30;;;9.50;99.90;;;;;;5051458;28;20213;-73
2022/03/15 11:08:11;;;;;;;3.25;2.85;;;9.50;99.90;;;;;;5051588;28;20213;-74
2022/03/15 11:10:40;;;;;;;4.20;3.80;;;9.50;99.90;;;;;;5051428;28;20204;-74
2022/03/15 11:13:11;;;;;;;4.47;3.20;;;9.60;99.90;;;;;;5051710;28;20197;-74
2022/03/15 11:15:41;;;;;;;5.65;3.50;;;9.50;99.90;;;;;;5051140;28;20298;-73
2022/03/15 11:18:10;;;;;;;5.05;3.97;;;9.50;99.90;;;;;;5051034;28;20212;-74
2022/03/15 11:20:40;;;;;;;6.88;4.30;;;9.40;99.90;;;;;;5051219;28;20205;-73
2022/03/15 11:23:09;;;;;;;5.43;4.50;;;9.40;99.90;;;;;;5052239;28;20201;-74
2022/03/15 11:25:37;;;;;;;9.07;4.40;;;9.40;99.90;;;;;;5051348;28;20227;-74
2022/03/15 11:28:09;;;;;;;5.40;4.35;;;9.40;99.90;;;;;;5050723;28;20209;-73
2022/03/15 11:30:36;;;;;;;4.63;4.13;;;9.40;99.90;;;;;;5051091;28;20232;-73
2022/03/15 11:33:05;;;;;;;5.63;4.68;;;9.30;99.90;;;;;;5051099;28;20259;-73
2022/03/15 11:35:34;;;;;;;6.40;4.93;;;9.30;99.90;;;;;;5050931;28;20252;-73
2022/03/15 11:38:02;;;;;;;6.95;4.28;;;9.30;99.90;;;;;;5050730;28;20204;-75
2022/03/15 11:40:30;;;;;;;6.47;4.80;;;9.30;99.90;;;;;;5051243;28;20551;-71
2022/03/15 11:43:12;;;;;;;6.40;4.70;;;9.20;99.90;;;;;;5050745;28;20205;-72
2022/03/15 11:45:43;;;;;;;6.40;5.50;;;9.00;99.90;;;;;;5050253;28;20716;-74
2022/03/15 11:48:16;;;;;;;6.05;4.35;;;9.00;99.90;;;;;;5050288;28;20205;-73
2022/03/15 11:50:55;;;;;;;5.18;4.25;;;8.90;99.90;;;;;;5050554;28;20695;-74
2022/03/15 11:53:36;;;;;;;7.30;4.30;;;8.80;99.90;;;;;;5037225;28;20680;-74
2022/03/15 11:56:08;;;;;;;4.95;4.43;;;8.80;99.90;;;;;;5045432;28;20754;-74
2022/03/15 11:58:35;;;;;;;8.77;5.45;;;8.80;99.90;;;;;;5048966;28;20284;-74
2022/03/15 12:01:10;;;;;;;9.98;5.20;;;8.80;99.90;;;;;;5049751;28;20236;-74
2022/03/15 12:03:45;;;;;;;5.55;4.38;;;8.80;99.90;;;;;;5049854;28;20209;-74
2022/03/15 12:06:17;;;;;;;5.15;4.30;;;8.70;99.90;;;;;;5049763;28;20799;-74
2022/03/15 12:08:54;;;;;;;8.68;4.60;;;8.70;99.90;;;;;;5048997;28;20196;-74
2022/03/15 12:11:29;;;;;;;5.72;5.13;;;8.60;99.90;;;;;;5049768;28;20201;-73
2022/03/15 12:14:04;;;;;;;5.82;5.22;;;8.60;99.90;;;;;;5049369;28;20211;-73
2022/03/15 12:16:38;;;;;;;6.03;5.30;;;8.60;99.90;;;;;;5049549;28;20236;-73
2022/03/15 12:19:15;;;;;;;10.15;6.10;;;8.60;99.90;;;;;;5049384;28;20201;-73
2022/03/15 12:21:49;;;;;;;8.88;5.95;;;8.60;99.90;;;;;;5049522;28;20205;-73
2022/03/15 12:24:19;;;;;;;9.07;6.45;;;8.60;99.90;;;;;;5049464;28;20217;-73
2022/03/15 12:26:58;;;;;;;7.68;6.07;;;8.50;99.90;;;;;;5048759;28;20239;-74
2022/03/15 12:29:26;;;;;;;8.00;5.80;;;8.40;99.90;;;;;;5049690;28;20688;-72
2022/03/15 12:31:56;;;;;;;7.90;6.25;;;8.40;99.90;;;;;;5049525;28;20227;-73
2022/03/15 12:34:22;;;;;;;7.90;5.70;;;8.40;99.90;;;;;;5049504;28;20343;-74
2022/03/15 12:36:51;;;;;;;10.40;6.10;;;8.50;99.90;;;;;;5048403;28;20217;-73
2022/03/15 12:39:19;;;;;;;6.65;5.95;;;8.60;99.90;;;;;;5050075;28;20259;-75
2022/03/15 12:41:47;;;;;;;9.95;5.82;;;8.70;99.90;;;;;;5049348;28;20208;-73
2022/03/15 12:44:14;;;;;;;6.28;5.65;;;8.80;99.90;;;;;;5049690;28;20229;-73
2022/03/15 12:46:43;;;;;;;8.40;5.95;;;8.80;99.90;;;;;;5048526;28;20196;-74
2022/03/15 12:49:13;;;;;;;5.88;5.38;;;8.80;99.90;;;;;;5049580;28;20205;-72
2022/03/15 12:51:43;;;;;;;7.57;5.10;;;8.80;99.90;;;;;;5049436;28;20235;-74
2022/03/15 12:54:11;;;;;;;5.97;5.32;;;8.90;99.90;;;;;;5049544;28;20225;-75
2022/03/15 12:56:43;;;;;;;12.10;5.93;;;8.90;99.90;;;;;;5033983;28;20224;-73
2022/03/15 12:59:21;;;;;;;6.53;5.45;;;9.00;99.90;;;;;;5032303;28;20225;-74
2022/03/15 13:01:48;;;;;;;5.90;4.40;;;9.00;99.90;;;;;;5032755;28;20255;-74
2022/03/15 13:04:17;;;;;;;5.28;4.78;;;9.10;99.90;;;;;;5032541;28;20226;-75